This is the latest recevied weather packets stored in our database for station/object GW1544. If no packets are shown the sender has not sent any weather packets the latest 10 day(s).
| Time | Temp. | Humidity | Pressure | Rain* | Wind** | Luminosity | Snow |
|---|---|---|---|---|---|---|---|
| 1777946966 | 16.67° C | 79% | 1015.2 hPa | 0 mm | - | - | - |
| 1777946597 | 16.67° C | 79% | 1015.2 hPa | 0 mm | - | - | - |
| 1777945158 | 17.22° C | 76% | 1014.9 hPa | 0 mm | - | - | - |
| 1777943736 | 18.33° C | 74% | 1014.9 hPa | 0 mm | - | - | - |
| 1777943011 | 18.33° C | 73% | 1014.5 hPa | 0 mm | - | - | - |
| 1777940113 | 19.44° C | 69% | 1014.9 hPa | 0 mm | - | - | - |
| 1777939035 | 20° C | 69% | 1014.5 hPa | 0 mm | - | - | - |
| 1777937622 | 21.67° C | 60% | 1014.9 hPa | 0 mm | - | - | - |
| 1777935107 | 23.89° C | 53% | 1014.9 hPa | 0 mm | - | - | - |
| 1777934376 | 24.44° C | 50% | 1014.9 hPa | 0 mm | - | - | - |
| 1777933996 | 23.89° C | 47% | 1014.9 hPa | 0 mm | - | - | - |
| 1777932196 | 25° C | 48% | 1015.2 hPa | 0 mm | - | - | - |
| 1777929328 | 25.56° C | 47% | 1015.2 hPa | 0 mm | - | - | - |
| 1777928990 | 25° C | 49% | 1015.2 hPa | 0 mm | - | - | - |
| 1777927172 | 25.56° C | 48% | 1015.5 hPa | 0 mm | - | - | - |
| 1777925741 | 24.44° C | 53% | 1015.9 hPa | 0 mm | - | - | - |
| 1777923576 | 23.89° C | 57% | 1016.2 hPa | 0 mm | - | - | - |
| 1777922842 | 23.33° C | 61% | 1016.5 hPa | 0 mm | - | - | - |
| 1777921789 | 22.78° C | 59% | 1016.9 hPa | 0 mm | - | - | - |
| 1777921053 | 22.22° C | 63% | 1017.2 hPa | 0 mm | - | - | - |
| 1777920335 | 21.11° C | 65% | 1017.2 hPa | 0 mm | - | - | - |
| 1777917800 | 18.89° C | 67% | 1018.2 hPa | 0 mm | - | - | - |
| 1777917468 | 18.33° C | 67% | 1018.2 hPa | 0 mm | - | - | - |
| 1777915633 | 20° C | 58% | 1017.9 hPa | 0 mm | - | - | - |
| 1777913498 | 20.56° C | 59% | 1017.9 hPa | 0 mm | - | - | - |
* Rain since midnight (hover to see other rain measurements)
** Current wind speed in m/s (hover to see current wind gust speed)